createdAt,value
2019-02-26T00:02:17.399Z,45.45
2019-02-26T00:04:54.081Z,45.23
2019-02-26T00:07:30.427Z,45.23
2019-02-26T00:10:09.168Z,44.57
2019-02-26T00:12:43.745Z,44.57
2019-02-26T00:15:18.291Z,45.75
2019-02-26T00:17:53.013Z,46.51
2019-02-26T00:20:29.633Z,46.14
2019-02-26T00:23:04.371Z,46.09
2019-02-26T00:25:38.987Z,46.34
2019-02-26T00:28:15.370Z,47.08
2019-02-26T00:30:49.700Z,47.08
2019-02-26T00:33:25.089Z,46.50
2019-02-26T00:36:00.128Z,46.20
2019-02-26T00:38:35.487Z,45.60
2019-02-26T00:41:10.962Z,45.60
2019-02-26T00:43:43.911Z,45.51
2019-02-26T00:46:18.153Z,46.10
2019-02-26T00:48:52.692Z,46.35
2019-02-26T00:51:27.118Z,46.43
2019-02-26T00:54:02.008Z,46.43
2019-02-26T00:56:38.613Z,45.97
2019-02-26T00:59:13.864Z,45.78
2019-02-26T01:01:48.235Z,45.56
2019-02-26T01:04:22.903Z,46.03
2019-02-26T01:06:57.318Z,46.74
2019-02-26T01:09:33.972Z,46.52
2019-02-26T01:12:09.232Z,46.72
2019-02-26T01:14:45.786Z,46.12
2019-02-26T01:17:20.075Z,46.00
2019-02-26T01:19:54.792Z,46.04
2019-02-26T01:22:31.101Z,46.19
2019-02-26T01:25:07.415Z,46.84
2019-02-26T01:27:43.599Z,46.91
2019-02-26T01:30:21.179Z,46.83
2019-02-26T01:32:57.557Z,46.34
2019-02-26T01:35:30.739Z,46.49
2019-02-26T01:38:07.617Z,46.54
2019-02-26T01:40:44.192Z,46.54
2019-02-26T01:43:18.114Z,46.98
2019-02-26T01:45:54.942Z,47.31
2019-02-26T01:48:29.915Z,47.19
2019-02-26T01:51:05.085Z,47.06
2019-02-26T01:53:39.604Z,46.90
2019-02-26T01:56:13.947Z,46.90
2019-02-26T01:58:56.144Z,47.00
2019-02-26T02:01:23.856Z,47.25
2019-02-26T02:03:58.970Z,47.58
2019-02-26T02:06:34.924Z,46.74
2019-02-26T02:09:13.348Z,46.74
2019-02-26T02:11:46.296Z,47.04
2019-02-26T02:14:20.657Z,47.70
2019-02-26T02:16:55.288Z,47.67
2019-02-26T02:19:30.785Z,48.36
2019-02-26T02:22:07.000Z,47.83
2019-02-26T02:24:43.612Z,47.31
2019-02-26T02:27:19.926Z,47.31
2019-02-26T02:29:55.442Z,47.29
2019-02-26T02:32:32.335Z,47.42
2019-02-26T02:35:07.425Z,47.48
2019-02-26T02:37:42.890Z,47.48
2019-02-26T02:40:15.868Z,47.06
2019-02-26T02:42:49.951Z,47.01
2019-02-26T02:45:23.291Z,46.71
2019-02-26T02:48:00.345Z,46.10
2019-02-26T02:50:33.744Z,46.10
2019-02-26T02:53:08.146Z,45.95
2019-02-26T02:55:44.277Z,46.75
2019-02-26T02:58:20.761Z,47.41
2019-02-26T03:00:57.125Z,48.06
2019-02-26T03:03:31.145Z,48.24
2019-02-26T03:06:07.603Z,47.88
2019-02-26T03:08:42.382Z,47.49
2019-02-26T03:11:17.953Z,47.73
2019-02-26T03:13:53.837Z,47.69
2019-02-26T03:16:27.944Z,47.74
2019-02-26T03:19:04.164Z,46.99
2019-02-26T03:21:38.335Z,46.99
2019-02-26T03:24:12.797Z,47.32
2019-02-26T03:26:46.962Z,47.94
2019-02-26T03:29:21.289Z,48.39
2019-02-26T03:31:58.407Z,48.96
2019-02-26T03:34:32.953Z,48.96
2019-02-26T03:37:08.345Z,48.52
2019-02-26T03:39:43.684Z,48.49
2019-02-26T03:42:23.963Z,48.90
2019-02-26T03:44:59.665Z,48.80
2019-02-26T03:47:34.950Z,48.80
2019-02-26T03:50:10.967Z,48.50
2019-02-26T03:52:47.085Z,48.66
2019-02-26T03:55:21.450Z,49.55
2019-02-26T03:57:57.019Z,49.55
2019-02-26T04:00:34.842Z,49.65
2019-02-26T04:03:11.759Z,50.16
2019-02-26T04:05:43.696Z,50.23
2019-02-26T04:08:19.968Z,50.24
2019-02-26T04:10:55.950Z,50.59
2019-02-26T04:13:30.341Z,50.74
2019-02-26T04:16:04.792Z,50.74
2019-02-26T04:18:37.782Z,50.27
2019-02-26T04:21:12.934Z,50.78
2019-02-26T04:23:48.798Z,51.01
2019-02-26T04:26:46.605Z,51.15
2019-02-26T04:30:05.913Z,50.85
2019-02-26T04:33:20.906Z,51.61
2019-02-26T04:38:43.312Z,51.52
2019-02-26T04:42:03.319Z,51.58
2019-02-26T04:45:59.405Z,51.47
2019-02-26T04:48:37.303Z,51.49
2019-02-26T04:51:11.693Z,51.49
2019-02-26T04:53:48.603Z,51.67
2019-02-26T04:56:21.946Z,51.74
2019-02-26T04:58:55.300Z,51.90
2019-02-26T05:01:29.358Z,52.50
2019-02-26T05:04:03.951Z,52.50
2019-02-26T05:06:37.956Z,52.67
2019-02-26T05:09:10.725Z,52.48
2019-02-26T05:11:45.028Z,52.48
2019-02-26T05:14:24.290Z,52.14
2019-02-26T05:17:05.044Z,52.14
2019-02-26T05:19:42.430Z,51.95
2019-02-26T05:22:15.905Z,51.95
2019-02-26T05:24:50.852Z,52.47
2019-02-26T05:27:26.361Z,52.47
2019-02-26T05:30:00.746Z,52.72
2019-02-26T05:32:35.486Z,52.92
2019-02-26T05:35:11.616Z,52.94
2019-02-26T05:37:46.287Z,52.63
2019-02-26T05:40:22.273Z,52.67
2019-02-26T05:42:58.835Z,53.55
2019-02-26T05:45:35.636Z,53.86
2019-02-26T05:48:07.892Z,53.77
2019-02-26T05:50:44.595Z,53.65
2019-02-26T05:53:16.873Z,53.58
2019-02-26T05:55:51.187Z,53.44
2019-02-26T05:58:25.684Z,53.29
2019-02-26T06:00:59.947Z,53.29
2019-02-26T06:03:32.721Z,53.34
2019-02-26T06:06:06.941Z,53.05
2019-02-26T06:08:41.250Z,53.08
2019-02-26T06:11:17.035Z,53.34
2019-02-26T06:13:51.651Z,53.29
2019-02-26T06:16:27.141Z,52.66
2019-02-26T06:19:01.951Z,52.79
2019-02-26T06:21:39.644Z,52.90
2019-02-26T06:24:10.846Z,52.93
2019-02-26T06:26:45.533Z,53.09
2019-02-26T06:30:04.151Z,53.05
2019-02-26T06:32:40.161Z,52.84
2019-02-26T06:35:19.060Z,52.90
2019-02-26T06:37:52.636Z,52.84
2019-02-26T06:40:26.945Z,52.84
2019-02-26T06:42:59.659Z,53.12
2019-02-26T06:45:35.585Z,53.21
2019-02-26T06:48:12.557Z,53.16
2019-02-26T06:50:46.078Z,53.16
2019-02-26T06:53:21.523Z,53.30
2019-02-26T06:55:56.110Z,53.30
2019-02-26T06:58:31.159Z,53.84
2019-02-26T07:01:07.150Z,53.62
2019-02-26T07:03:41.411Z,53.87
2019-02-26T07:06:18.506Z,53.87
2019-02-26T07:08:53.468Z,54.31
2019-02-26T07:11:30.511Z,53.18
2019-02-26T07:14:05.660Z,53.70
2019-02-26T07:16:40.504Z,53.37
2019-02-26T07:19:16.613Z,52.27
2019-02-26T07:21:51.279Z,53.08
2019-02-26T07:24:27.154Z,52.09
2019-02-26T07:27:02.460Z,50.55
2019-02-26T07:29:42.460Z,46.99
2019-02-26T07:32:17.915Z,46.99
2019-02-26T07:34:52.686Z,48.46
2019-02-26T07:37:28.615Z,48.64
2019-02-26T07:40:05.237Z,47.39
2019-02-26T07:42:41.343Z,41.42
2019-02-26T07:45:19.733Z,39.64
2019-02-26T07:47:54.069Z,39.64
2019-02-26T07:50:31.280Z,37.87
2019-02-26T07:53:05.118Z,37.03
2019-02-26T07:55:42.399Z,35.86
2019-02-26T07:58:17.880Z,34.77
2019-02-26T08:00:52.427Z,33.50
2019-02-26T08:03:29.287Z,33.50
2019-02-26T08:06:06.529Z,34.92
2019-02-26T08:08:40.256Z,33.96
2019-02-26T08:11:15.058Z,33.96
2019-02-26T08:13:49.868Z,35.03
2019-02-26T08:16:27.497Z,34.02
2019-02-26T08:19:01.493Z,32.04
2019-02-26T08:21:35.882Z,32.04
2019-02-26T08:24:10.624Z,30.77
2019-02-26T08:26:45.347Z,29.73
2019-02-26T08:29:20.926Z,28.41
2019-02-26T08:31:56.880Z,26.91
2019-02-26T08:34:29.705Z,26.26
2019-02-26T08:37:04.238Z,25.93
2019-02-26T08:39:38.758Z,24.46
2019-02-26T08:42:12.687Z,23.62
2019-02-26T08:44:48.669Z,22.85
2019-02-26T08:47:23.495Z,21.94
2019-02-26T08:49:58.893Z,21.47
2019-02-26T08:52:34.114Z,21.52
2019-02-26T08:55:10.732Z,20.84
2019-02-26T08:57:46.317Z,20.84
2019-02-26T09:00:21.107Z,21.02
2019-02-26T09:02:56.628Z,21.02
2019-02-26T09:05:33.995Z,20.08
2019-02-26T09:08:08.483Z,20.39
2019-02-26T09:10:43.753Z,19.44
2019-02-26T09:13:18.921Z,19.59
2019-02-26T09:15:55.140Z,19.01
2019-02-26T09:18:31.510Z,19.01
2019-02-26T09:21:07.084Z,19.41
2019-02-26T09:23:41.254Z,18.78
2019-02-26T09:26:15.668Z,19.14
2019-02-26T09:28:50.500Z,18.79
2019-02-26T09:31:26.065Z,19.24
2019-02-26T09:34:00.389Z,18.80
2019-02-26T09:36:34.935Z,19.57
2019-02-26T09:39:10.660Z,19.57
2019-02-26T09:41:45.939Z,19.63
2019-02-26T09:44:20.275Z,19.20
2019-02-26T09:46:55.350Z,19.56
2019-02-26T09:49:33.155Z,19.95
2019-02-26T09:52:06.885Z,21.01
2019-02-26T09:54:42.938Z,20.58
2019-02-26T09:57:18.029Z,21.00
2019-02-26T09:59:55.266Z,21.35
2019-02-26T10:02:28.885Z,21.89
2019-02-26T10:05:01.663Z,22.83
2019-02-26T10:07:38.640Z,23.08
2019-02-26T10:10:14.168Z,22.52
2019-02-26T10:12:48.595Z,21.66
2019-02-26T10:15:22.936Z,21.66
2019-02-26T10:17:59.586Z,22.55
2019-02-26T10:20:33.684Z,22.11
2019-02-26T10:23:08.107Z,22.66
2019-02-26T10:25:47.329Z,22.50
2019-02-26T10:28:22.395Z,22.50
2019-02-26T10:30:59.625Z,22.75
2019-02-26T10:33:35.917Z,23.02
2019-02-26T10:36:11.043Z,23.40
2019-02-26T10:38:46.340Z,23.11
2019-02-26T10:41:21.237Z,23.28
2019-02-26T10:43:55.707Z,23.65
2019-02-26T10:46:32.148Z,23.23
2019-02-26T10:49:04.688Z,22.31
2019-02-26T10:51:42.396Z,22.36
2019-02-26T10:54:17.828Z,22.52
2019-02-26T10:56:49.957Z,22.60
2019-02-26T10:59:24.207Z,21.99
2019-02-26T11:02:00.751Z,21.56
2019-02-26T11:04:38.099Z,21.56
2019-02-26T11:07:11.545Z,22.23
2019-02-26T11:09:49.987Z,21.60
2019-02-26T11:12:25.173Z,21.65
2019-02-26T11:15:01.426Z,21.37
2019-02-26T11:17:35.767Z,20.68
2019-02-26T11:20:09.661Z,20.06
2019-02-26T11:22:44.869Z,19.06
2019-02-26T11:25:21.335Z,18.39
2019-02-26T11:27:54.922Z,17.02
2019-02-26T11:30:32.107Z,14.90
2019-02-26T11:33:07.993Z,14.14
2019-02-26T11:35:43.892Z,14.69
2019-02-26T11:38:19.594Z,14.69
2019-02-26T11:40:54.286Z,14.87
2019-02-26T11:43:29.956Z,15.74
2019-02-26T11:46:06.853Z,16.63
2019-02-26T11:48:41.893Z,16.63
2019-02-26T11:51:17.717Z,15.46
2019-02-26T11:53:52.353Z,14.98
2019-02-26T11:56:26.901Z,14.98
2019-02-26T11:59:01.282Z,14.58
2019-02-26T12:01:37.012Z,14.44
2019-02-26T12:04:14.266Z,13.90
2019-02-26T12:06:48.288Z,13.43
2019-02-26T12:09:23.060Z,13.19
2019-02-26T12:11:58.522Z,13.33
2019-02-26T12:14:34.676Z,13.33
2019-02-26T12:17:10.290Z,12.19
2019-02-26T12:19:46.108Z,12.47
2019-02-26T12:22:22.597Z,12.85
2019-02-26T12:24:58.892Z,12.56
2019-02-26T12:27:36.016Z,13.07
2019-02-26T12:30:18.210Z,13.07
2019-02-26T12:32:55.154Z,13.22
2019-02-26T12:35:33.005Z,13.27
2019-02-26T12:38:17.476Z,13.27
2019-02-26T12:40:44.710Z,14.07
2019-02-26T12:43:19.248Z,14.31
2019-02-26T12:45:55.960Z,13.53
2019-02-26T12:48:30.213Z,11.86
2019-02-26T12:51:07.520Z,11.22
2019-02-26T12:53:50.002Z,11.22
2019-02-26T12:56:24.343Z,13.14
2019-02-26T12:59:00.977Z,13.14
2019-02-26T13:01:36.218Z,13.24
2019-02-26T13:04:12.896Z,12.59
2019-02-26T13:06:49.260Z,12.59
2019-02-26T13:09:26.796Z,12.68
2019-02-26T13:12:02.780Z,11.14
2019-02-26T13:14:36.953Z,11.14
2019-02-26T13:17:13.887Z,10.85
2019-02-26T13:19:49.194Z,11.67
2019-02-26T13:22:23.720Z,11.09
2019-02-26T13:24:56.871Z,11.09
2019-02-26T13:27:30.245Z,10.55
2019-02-26T13:30:05.127Z,10.11
2019-02-26T13:32:55.098Z,11.07
2019-02-26T13:35:16.278Z,11.66
2019-02-26T13:37:51.782Z,13.14
2019-02-26T13:40:25.095Z,14.68
2019-02-26T13:45:35.284Z,16.75
2019-02-26T13:48:10.283Z,18.28
2019-02-26T13:50:44.947Z,18.68
2019-02-26T13:53:19.326Z,20.02
2019-02-26T13:55:53.950Z,21.21
2019-02-26T13:58:28.288Z,22.07
2019-02-26T14:01:03.115Z,23.64
2019-02-26T14:03:37.794Z,23.64
2019-02-26T14:06:12.286Z,24.09
2019-02-26T14:08:47.272Z,24.04
2019-02-26T14:11:21.944Z,23.68
2019-02-26T14:13:56.702Z,23.93
2019-02-26T14:16:32.645Z,23.93
2019-02-26T14:19:06.150Z,24.54
2019-02-26T14:21:40.766Z,24.69
2019-02-26T14:24:14.098Z,24.97
2019-02-26T14:26:48.624Z,25.22
2019-02-26T14:29:23.267Z,25.76
2019-02-26T14:31:58.117Z,25.76
2019-02-26T14:37:17.716Z,25.97
2019-02-26T14:39:51.054Z,25.97
2019-02-26T14:42:25.288Z,26.63
2019-02-26T14:44:59.919Z,26.11
2019-02-26T14:47:34.424Z,25.94
2019-02-26T14:50:11.599Z,26.77
2019-02-26T14:52:46.199Z,27.15
2019-02-26T14:55:21.300Z,26.65
2019-02-26T14:57:55.920Z,26.65
2019-02-26T15:00:30.339Z,26.76
2019-02-26T15:03:05.331Z,26.66
2019-02-26T15:05:40.124Z,27.07
2019-02-26T15:08:14.675Z,26.74
2019-02-26T15:10:49.467Z,26.74
2019-02-26T15:13:25.536Z,27.07
2019-02-26T15:16:00.282Z,26.94
2019-02-26T15:18:35.797Z,26.18
2019-02-26T15:21:10.443Z,26.29
2019-02-26T15:23:45.240Z,26.49
2019-02-26T15:26:19.883Z,26.58
2019-02-26T15:28:54.274Z,26.48
2019-02-26T15:31:28.958Z,26.42
2019-02-26T15:34:03.684Z,26.56
2019-02-26T15:36:39.917Z,26.56
2019-02-26T15:39:14.282Z,26.54
2019-02-26T15:41:50.552Z,27.02
2019-02-26T15:44:26.131Z,27.09
2019-02-26T15:47:02.367Z,26.96
2019-02-26T15:49:37.763Z,26.96
2019-02-26T15:52:13.118Z,27.19
2019-02-26T15:58:03.031Z,27.44
2019-02-26T16:00:37.966Z,27.15
2019-02-26T16:03:13.293Z,27.23
2019-02-26T16:05:47.945Z,27.23
2019-02-26T16:08:23.084Z,27.06
2019-02-26T16:10:57.376Z,26.94
2019-02-26T16:13:32.124Z,27.42
2019-02-26T16:16:07.263Z,27.57
2019-02-26T16:18:42.309Z,27.65
2019-02-26T16:21:19.305Z,27.90
2019-02-26T16:23:53.355Z,27.74
2019-02-26T16:26:33.945Z,27.70
2019-02-26T16:29:08.420Z,27.60
2019-02-26T16:31:43.271Z,27.68
2019-02-26T16:34:19.934Z,27.69
2019-02-26T16:36:55.369Z,27.69
2019-02-26T16:39:30.274Z,27.83
2019-02-26T16:42:05.282Z,27.98
2019-02-26T16:44:40.963Z,27.98
2019-02-26T16:47:15.794Z,28.02
2019-02-26T16:49:51.774Z,27.96
2019-02-26T16:52:27.752Z,27.99
2019-02-26T16:55:05.292Z,28.11
2019-02-26T16:57:40.130Z,28.25
2019-02-26T17:00:18.346Z,28.30
2019-02-26T17:02:54.280Z,28.29
2019-02-26T17:05:30.122Z,28.25
2019-02-26T17:08:04.939Z,28.09
2019-02-26T17:10:39.433Z,28.21
2019-02-26T17:13:14.957Z,28.35
2019-02-26T17:15:49.468Z,28.42
2019-02-26T17:18:24.286Z,28.54
2019-02-26T17:20:58.958Z,28.64
2019-02-26T17:23:34.794Z,28.82
2019-02-26T17:26:11.888Z,28.99
2019-02-26T17:28:44.867Z,28.99
2019-02-26T17:31:19.316Z,29.25
2019-02-26T17:33:54.166Z,28.97
2019-02-26T17:36:29.858Z,28.95
2019-02-26T17:39:04.282Z,29.35
2019-02-26T17:41:39.693Z,29.53
2019-02-26T17:44:14.272Z,29.53
2019-02-26T17:46:50.758Z,29.97
2019-02-26T17:49:26.283Z,30.29
2019-02-26T17:52:01.285Z,30.25
2019-02-26T17:54:36.937Z,30.21
2019-02-26T17:57:11.939Z,30.08
2019-02-26T17:59:52.746Z,30.56
2019-02-26T18:02:27.982Z,30.56
2019-02-26T18:05:04.684Z,30.87
2019-02-26T18:08:23.672Z,30.87
2019-02-26T18:10:58.256Z,30.69
2019-02-26T18:13:33.121Z,30.91
2019-02-26T18:16:09.401Z,33.04
2019-02-26T18:18:44.084Z,34.55
2019-02-26T18:21:18.654Z,31.67
2019-02-26T18:23:54.338Z,31.67
2019-02-26T18:26:30.288Z,31.75
2019-02-26T18:29:07.502Z,31.63
2019-02-26T18:31:42.944Z,34.14
2019-02-26T18:34:17.755Z,35.97
2019-02-26T18:36:52.283Z,35.97
2019-02-26T18:39:28.947Z,35.96
2019-02-26T18:42:07.567Z,36.23
2019-02-26T18:44:41.276Z,36.23
2019-02-26T18:47:15.947Z,36.41
2019-02-26T18:49:50.377Z,36.59
2019-02-26T18:52:27.902Z,36.83
2019-02-26T18:55:03.344Z,36.83
2019-02-26T18:57:38.945Z,36.50
2019-02-26T19:00:17.369Z,36.91
2019-02-26T19:02:53.412Z,37.82
2019-02-26T19:05:28.284Z,37.82
2019-02-26T19:08:05.803Z,37.61
2019-02-26T19:10:41.283Z,37.25
2019-02-26T19:13:15.942Z,37.04
2019-02-26T19:15:51.426Z,37.08
2019-02-26T19:18:26.271Z,37.20
2019-02-26T19:21:01.291Z,37.33
2019-02-26T19:23:36.895Z,37.32
2019-02-26T19:26:13.568Z,38.07
2019-02-26T19:28:47.946Z,38.64
2019-02-26T19:31:21.351Z,38.64
2019-02-26T19:33:55.996Z,38.98
2019-02-26T19:36:30.957Z,38.88
2019-02-26T19:39:07.843Z,39.51
2019-02-26T19:41:45.478Z,39.51
2019-02-26T19:44:20.926Z,39.66
2019-02-26T19:46:55.468Z,39.17
2019-02-26T19:49:30.282Z,39.17
2019-02-26T19:52:05.282Z,39.98
2019-02-26T19:54:42.037Z,40.13
2019-02-26T19:57:24.681Z,41.07
2019-02-26T20:00:04.098Z,40.78
2019-02-26T20:02:39.621Z,41.04
2019-02-26T20:05:22.289Z,40.79
2019-02-26T20:07:57.723Z,40.79
2019-02-26T20:10:31.034Z,40.45
2019-02-26T20:13:04.200Z,40.27
2019-02-26T20:15:38.964Z,40.19
2019-02-26T20:18:20.720Z,40.32
2019-02-26T20:20:51.940Z,40.90
2019-02-26T20:23:26.604Z,41.04
2019-02-26T20:26:03.510Z,41.01
2019-02-26T20:28:42.102Z,42.17
2019-02-26T20:31:16.572Z,41.97
2019-02-26T20:33:57.353Z,41.97
2019-02-26T20:36:32.279Z,41.55
2019-02-26T20:39:08.486Z,41.69
2019-02-26T20:41:43.007Z,41.39
2019-02-26T20:44:15.866Z,41.18
2019-02-26T20:46:50.119Z,41.73
2019-02-26T20:49:25.676Z,42.35
2019-02-26T20:52:00.313Z,42.35
2019-02-26T20:54:35.735Z,42.00
2019-02-26T20:57:10.283Z,42.34
2019-02-26T20:59:44.725Z,42.78
2019-02-26T21:02:21.137Z,42.83
2019-02-26T21:04:55.892Z,42.76
2019-02-26T21:07:30.298Z,42.76
2019-02-26T21:10:06.976Z,42.83
2019-02-26T21:12:43.336Z,43.09
2019-02-26T21:15:19.878Z,43.46
2019-02-26T21:17:57.771Z,43.20
2019-02-26T21:20:38.864Z,42.84
2019-02-26T21:23:15.799Z,42.68
2019-02-26T21:25:49.056Z,43.13
2019-02-26T21:28:33.758Z,43.48
2019-02-26T21:31:07.214Z,43.48
2019-02-26T21:33:41.989Z,43.95
2019-02-26T21:36:18.633Z,44.33
2019-02-26T21:38:59.352Z,44.33
2019-02-26T21:41:38.700Z,43.96
2019-02-26T21:45:06.610Z,43.96
2019-02-26T21:47:40.483Z,43.74
2019-02-26T21:50:15.316Z,43.55
2019-02-26T21:53:05.545Z,43.50
2019-02-26T21:55:27.737Z,43.77
2019-02-26T21:58:16.960Z,44.29
2019-02-26T22:01:01.312Z,44.17
2019-02-26T22:03:39.295Z,44.01
2019-02-26T22:06:19.339Z,43.83
2019-02-26T22:08:57.105Z,44.57
2019-02-26T22:11:35.325Z,44.85
2019-02-26T22:14:10.256Z,45.80
2019-02-26T22:16:44.957Z,45.43
2019-02-26T22:19:19.349Z,45.53
2019-02-26T22:21:54.458Z,45.53
2019-02-26T22:24:31.302Z,45.07
2019-02-26T22:27:08.803Z,45.33
2019-02-26T22:29:42.120Z,45.88
2019-02-26T22:32:18.334Z,45.82
2019-02-26T22:34:53.593Z,46.00
2019-02-26T22:37:30.782Z,45.56
2019-02-26T22:40:11.961Z,45.81
2019-02-26T22:42:47.715Z,45.61
2019-02-26T22:45:27.614Z,45.61
2019-02-26T22:47:59.706Z,45.47
2019-02-26T22:50:34.354Z,45.83
2019-02-26T22:53:10.475Z,45.31
2019-02-26T22:55:54.512Z,45.42
2019-02-26T22:58:29.286Z,45.42
2019-02-26T23:01:30.771Z,45.24
2019-02-26T23:04:19.282Z,45.66
2019-02-26T23:06:51.984Z,45.66
2019-02-26T23:09:29.952Z,45.64
2019-02-26T23:12:07.433Z,45.75
2019-02-26T23:14:43.262Z,45.75
2019-02-26T23:17:19.397Z,45.98
2019-02-26T23:19:55.299Z,46.59
2019-02-26T23:22:38.796Z,47.10
2019-02-26T23:25:07.339Z,47.20
2019-02-26T23:27:42.299Z,47.19
2019-02-26T23:30:17.301Z,48.02
2019-02-26T23:33:01.835Z,48.02
2019-02-26T23:35:35.373Z,48.01
2019-02-26T23:38:46.389Z,48.26
2019-02-26T23:41:21.147Z,47.94
2019-02-26T23:43:55.817Z,47.94
2019-02-26T23:46:29.759Z,47.65
2019-02-26T23:49:11.799Z,48.48
2019-02-26T23:51:53.634Z,48.48
2019-02-26T23:54:28.318Z,48.31
2019-02-26T23:57:03.333Z,48.41
2019-02-26T23:59:52.395Z,48.58
